La Crescenta, California
Current Conditions -  °F | °C
As of 11:53 AM on Saturday 25 Oct 2014 (Local Time) from KBUR Reporting Station
Broken Clouds Broken Clouds  
Wind Chill: 78°   Ceiling: 9000
Heat Index: 78°   Visibility: 10mi
Dew Point: 41°   Wind: 7mph
Humidity: 27%   Direction: 170°S
Pressure: 30.06"   Gusts: NA
Location:  34.22°N, 118.24°W
Report Text: KBUR 251853Z 17006KT 10SM BKN090 26/05 A3006 RMK AO2 SLP166 T02560050
Loading
Personal Weather Stations






























Interactive Weather Map
Tropical Storm Tracking
New forecast layout! Learn more

10-Day Weather Forecast

Advertisements
Track Severe Weather on mobile